Terminal Aerodrome Forecast
Issued by NWS

Home | Current Version | Previous Version | Graphics & Text | Print | Product List | Glossary On
Versions: 1 2 3 4 5 6 7 8 9 10 11 12 13 14 15 16
000
FTUS43 KUNR 291720
TAFGCC
TAF
KGCC 291720Z 2918/3018 14012KT P6SM SCT020 OVC050
     FM300200 14008KT P6SM OVC010
     FM300900 04012KT 4SM -RASN BR OVC006=

USA.gov is the U.S. government's official web portal to all federal, state and local government web resources and services.